Time;durP1;ratioP1;P1;durP2;ratioP2;P2;SDS_P1;SDS_P2;PMS_P1;PMS_P2;Temp;Humidity;BMP_temperature;BMP_pressure;BME280_temperature;BME280_humidity;BME280_pressure;Samples;Min_cycle;Max_cycle;Signal;HPM_P1;HPM_P2
2022/06/24 00:01:12;;;;;;;16.45;3.65;;;;;;;21.40;100.00;95882.16;5030351;28;20053;-73
2022/06/24 00:03:38;;;;;;;15.38;3.08;;;;;;;21.37;100.00;95873.84;5032990;28;20048;-73
2022/06/24 00:06:13;;;;;;;11.57;2.95;;;;;;;21.11;100.00;95879.44;5033024;28;20043;-73
2022/06/24 00:08:48;;;;;;;12.98;2.90;;;;;;;21.13;100.00;95880.69;5029392;28;20040;-72
2022/06/24 00:11:14;;;;;;;16.73;3.05;;;;;;;21.20;100.00;95882.91;5033807;28;20060;-73
2022/06/24 00:13:39;;;;;;;11.85;2.25;;;;;;;21.19;100.00;95873.16;5034651;28;20038;-72
2022/06/24 00:16:05;;;;;;;14.20;2.70;;;;;;;21.08;100.00;95858.31;5032039;28;20415;-72
2022/06/24 00:18:30;;;;;;;10.05;2.85;;;;;;;21.03;100.00;95861.25;5033358;28;20044;-72
2022/06/24 00:20:56;;;;;;;9.02;2.55;;;;;;;20.97;100.00;95868.00;5034209;28;20064;-73
2022/06/24 00:23:22;;;;;;;17.40;2.42;;;;;;;20.90;100.00;95870.44;5036669;28;20103;-72
2022/06/24 00:25:49;;;;;;;8.13;2.20;;;;;;;20.77;100.00;95881.19;5031676;28;20225;-72
2022/06/24 00:28:15;;;;;;;11.38;2.30;;;;;;;20.71;100.00;95887.97;5032733;28;20064;-72
2022/06/24 00:30:51;;;;;;;11.93;2.22;;;;;;;20.65;100.00;95883.03;5031601;28;20261;-72
2022/06/24 00:33:19;;;;;;;10.50;1.98;;;;;;;20.68;100.00;95869.56;5032766;28;20041;-72
2022/06/24 00:35:49;;;;;;;9.35;2.40;;;;;;;20.62;100.00;95879.03;5032966;28;20488;-72
2022/06/24 00:38:27;;;;;;;13.15;2.30;;;;;;;20.63;100.00;95879.84;5032958;28;20227;-73
2022/06/24 00:41:08;;;;;;;7.32;2.08;;;;;;;20.66;100.00;95881.91;5033416;28;20438;-72
2022/06/24 00:43:42;;;;;;;11.75;2.70;;;;;;;20.67;100.00;95892.44;5050563;28;20043;-73
2022/06/24 00:46:17;;;;;;;12.60;2.63;;;;;;;20.64;100.00;95897.75;5038857;28;20438;-72
2022/06/24 00:48:52;;;;;;;12.88;2.45;;;;;;;20.61;100.00;95910.06;5038570;28;20498;-72
2022/06/24 00:51:20;;;;;;;10.68;1.70;;;;;;;20.52;100.00;95901.16;5041427;28;20047;-73
2022/06/24 00:53:51;;;;;;;11.57;2.40;;;;;;;20.46;100.00;95911.38;5040344;28;20833;-72
2022/06/24 00:56:19;;;;;;;12.68;2.20;;;;;;;20.38;100.00;95924.97;5038595;28;20052;-72
2022/06/24 00:59:03;;;;;;;10.20;1.90;;;;;;;20.46;100.00;95937.75;5040284;28;20041;-72
2022/06/24 01:01:30;;;;;;;7.97;1.95;;;;;;;20.40;100.00;95945.28;5040077;28;20075;-73
2022/06/24 01:03:57;;;;;;;8.15;2.35;;;;;;;20.29;100.00;95949.44;5039039;28;20476;-72
2022/06/24 01:06:24;;;;;;;5.50;1.85;;;;;;;20.12;100.00;95955.69;5038409;28;20044;-72
2022/06/24 01:08:50;;;;;;;10.68;2.38;;;;;;;19.96;100.00;95944.53;5040171;28;20090;-73
2022/06/24 01:11:26;;;;;;;8.18;2.00;;;;;;;19.60;100.00;95947.56;5037660;28;20440;-72
2022/06/24 01:13:53;;;;;;;7.13;1.85;;;;;;;19.57;100.00;95942.78;5040751;28;20037;-72
2022/06/24 01:16:25;;;;;;;11.68;1.88;;;;;;;19.42;100.00;95924.22;5039189;28;20049;-72
2022/06/24 01:18:59;;;;;;;11.55;2.33;;;;;;;19.74;100.00;95914.84;5038949;28;20033;-72
2022/06/24 01:21:37;;;;;;;9.43;1.73;;;;;;;19.85;100.00;95904.47;5040403;28;20087;-73
2022/06/24 01:24:24;;;;;;;9.13;2.10;;;;;;;19.71;100.00;95893.78;5038942;28;20415;-72
2022/06/24 01:26:53;;;;;;;5.53;1.80;;;;;;;19.64;100.00;95890.75;5039299;28;20114;-72
2022/06/24 01:29:20;;;;;;;10.77;2.40;;;;;;;19.75;100.00;95876.50;5040091;28;20111;-72
2022/06/24 01:31:48;;;;;;;10.45;1.70;;;;;;;19.83;100.00;95874.13;5039470;28;20302;-73
2022/06/24 01:34:16;;;;;;;7.32;1.85;;;;;;;19.84;100.00;95881.13;5039748;28;20053;-73
2022/06/24 01:36:41;;;;;;;10.40;1.67;;;;;;;19.84;100.00;95884.66;5039211;28;20152;-72
2022/06/24 01:39:07;;;;;;;7.30;2.13;;;;;;;19.86;100.00;95879.72;5039509;28;20544;-72
2022/06/24 01:41:33;;;;;;;7.55;1.27;;;;;;;19.93;100.00;95880.03;5040633;28;20047;-73
2022/06/24 01:43:59;;;;;;;7.20;1.80;;;;;;;19.90;100.00;95871.72;5039666;28;20063;-73
2022/06/24 01:46:25;;;;;;;8.30;1.60;;;;;;;19.89;100.00;95872.84;5038356;28;20036;-72
2022/06/24 01:48:50;;;;;;;9.07;1.45;;;;;;;19.66;100.00;95864.88;5039028;28;20127;-72
2022/06/24 01:51:18;;;;;;;7.07;1.50;;;;;;;19.53;100.00;95849.50;5038903;28;20037;-72
2022/06/24 01:53:44;;;;;;;5.78;1.30;;;;;;;19.56;100.00;95892.31;5040719;28;20041;-72
2022/06/24 01:56:09;;;;;;;5.22;1.27;;;;;;;19.24;100.00;95881.91;5037605;28;20537;-73
2022/06/24 01:58:35;;;;;;;9.13;2.25;;;;;;;18.94;100.00;95879.00;5036275;28;20152;-72
2022/06/24 02:01:00;;;;;;;7.97;1.50;;;;;;;19.08;100.00;95895.13;5035547;28;20056;-72
2022/06/24 02:03:27;;;;;;;6.60;1.20;;;;;;;19.09;100.00;95889.41;5035819;28;20520;-72
2022/06/24 02:05:53;;;;;;;6.00;1.55;;;;;;;19.21;100.00;95884.13;5037287;28;20120;-72
2022/06/24 02:08:18;;;;;;;5.50;1.23;;;;;;;19.06;100.00;95873.75;5036470;28;20029;-72
2022/06/24 02:13:28;;;;;;;7.97;1.63;;;;;;;18.74;100.00;95885.78;5034629;28;20111;-72
2022/06/24 02:16:01;;;;;;;8.30;1.60;;;;;;;18.63;100.00;95887.16;5037878;28;20377;-72
2022/06/24 02:18:30;;;;;;;8.10;1.50;;;;;;;18.74;100.00;95882.28;5036066;28;20045;-73
2022/06/24 02:20:56;;;;;;;5.72;1.33;;;;;;;18.62;100.00;95864.69;5038779;28;20077;-73
2022/06/24 02:23:22;;;;;;;5.13;1.67;;;;;;;18.41;100.00;95870.97;5036459;28;20144;-72
2022/06/24 02:25:49;;;;;;;8.25;1.33;;;;;;;18.30;100.00;95868.56;5037157;28;20758;-72
2022/06/24 02:28:15;;;;;;;8.00;1.48;;;;;;;18.41;100.00;95865.56;5036569;28;20135;-72
2022/06/24 02:30:42;;;;;;;8.88;1.58;;;;;;;18.52;100.00;95872.28;5035106;28;20047;-72
2022/06/24 02:33:08;;;;;;;5.35;1.52;;;;;;;18.49;100.00;95857.47;5034254;28;20589;-72
2022/06/24 02:35:35;;;;;;;8.75;1.67;;;;;;;18.63;100.00;95862.78;5036981;28;20102;-72
2022/06/24 02:38:00;;;;;;;9.30;1.77;;;;;;;18.51;100.00;95874.19;5038565;28;20079;-72
2022/06/24 02:40:45;;;;;;;9.02;1.80;;;;;;;18.26;100.00;95869.47;5033306;28;20029;-72
2022/06/24 02:43:25;;;;;;;6.35;1.60;;;;;;;18.48;100.00;95877.53;5035645;28;20128;-72
2022/06/24 02:45:52;;;;;;;8.38;1.98;;;;;;;18.49;100.00;95865.59;5035042;28;20073;-71
2022/06/24 02:48:20;;;;;;;16.90;2.38;;;;;;;18.60;100.00;95863.41;5034752;28;20479;-72
2022/06/24 02:50:48;;;;;;;9.70;1.88;;;;;;;18.48;100.00;95868.63;5034096;28;20041;-72
2022/06/24 02:53:15;;;;;;;8.90;1.80;;;;;;;18.38;100.00;95864.28;5034643;28;20124;-72
2022/06/24 02:55:42;;;;;;;6.25;1.65;;;;;;;18.43;100.00;95856.00;5035421;28;20041;-72
2022/06/24 02:58:08;;;;;;;9.05;2.20;;;;;;;18.40;100.00;95845.00;5033467;28;20048;-72
2022/06/24 03:00:35;;;;;;;6.88;1.70;;;;;;;18.35;100.00;95826.97;5032934;28;20045;-72
2022/06/24 03:03:00;;;;;;;7.40;1.77;;;;;;;18.17;100.00;95830.72;5032407;28;20045;-72
2022/06/24 03:05:27;;;;;;;9.65;1.70;;;;;;;18.25;100.00;95816.44;5052442;28;20037;-73
2022/06/24 03:07:53;;;;;;;4.50;1.85;;;;;;;18.28;100.00;95827.41;5035444;28;20114;-72
2022/06/24 03:10:19;;;;;;;5.88;1.30;;;;;;;18.25;100.00;95829.97;5033398;28;20037;-72
2022/06/24 03:12:45;;;;;;;10.40;3.20;;;;;;;17.86;100.00;95830.72;5031984;28;20040;-72
2022/06/24 03:15:10;;;;;;;7.80;1.90;;;;;;;17.70;100.00;95850.03;5032243;28;20119;-73
2022/06/24 03:17:37;;;;;;;10.10;2.30;;;;;;;17.63;100.00;95854.25;5035138;28;20033;-73
2022/06/24 03:20:05;;;;;;;12.02;2.22;;;;;;;17.63;100.00;95844.25;5032209;28;20565;-73
2022/06/24 03:22:30;;;;;;;5.35;1.30;;;;;;;17.55;100.00;95836.88;5035392;28;20073;-72
2022/06/24 03:24:56;;;;;;;6.72;1.15;;;;;;;17.55;100.00;95845.78;5032865;28;20040;-72
2022/06/24 03:27:23;;;;;;;7.03;1.77;;;;;;;17.55;100.00;95834.94;5033793;28;20040;-72
2022/06/24 03:29:49;;;;;;;3.85;1.30;;;;;;;17.46;100.00;95842.22;5032322;28;20116;-72
2022/06/24 03:32:14;;;;;;;4.47;1.27;;;;;;;17.21;100.00;95842.81;5032146;28;20148;-73
2022/06/24 03:34:40;;;;;;;6.15;1.52;;;;;;;17.17;100.00;95841.81;5033134;28;20037;-72
2022/06/24 03:37:06;;;;;;;4.78;1.45;;;;;;;17.09;100.00;95842.53;5033533;28;20123;-72
2022/06/24 03:39:31;;;;;;;7.32;1.42;;;;;;;16.95;100.00;95837.16;5032825;28;20032;-72
2022/06/24 03:41:57;;;;;;;4.45;1.25;;;;;;;16.77;100.00;95847.00;5031400;28;20048;-72
2022/06/24 03:44:22;;;;;;;7.45;1.77;;;;;;;16.69;100.00;95847.72;5032577;28;21190;-73
2022/06/24 03:46:48;;;;;;;6.25;1.60;;;;;;;16.56;100.00;95845.78;5033820;28;20071;-72
2022/06/24 03:49:14;;;;;;;7.90;1.80;;;;;;;16.51;100.00;95840.50;5033051;28;20041;-73
2022/06/24 03:51:40;;;;;;;7.82;2.10;;;;;;;16.58;100.00;95849.81;5048111;28;20468;-72
2022/06/24 03:54:05;;;;;;;5.25;1.80;;;;;;;16.42;100.00;95864.72;5047934;28;20037;-73
2022/06/24 03:56:31;;;;;;;7.78;1.60;;;;;;;16.32;100.00;95852.19;5032465;28;20041;-72
2022/06/24 03:58:57;;;;;;;10.82;1.80;;;;;;;16.36;100.00;95849.69;5032990;28;20041;-73
2022/06/24 04:01:22;;;;;;;9.07;1.95;;;;;;;16.39;100.00;95849.09;5029848;28;20071;-73
2022/06/24 04:03:48;;;;;;;7.90;1.90;;;;;;;16.34;100.00;95863.50;5031533;28;20488;-72
2022/06/24 04:06:13;;;;;;;9.80;2.00;;;;;;;16.26;100.00;95849.88;5031045;28;20150;-72
2022/06/24 04:08:40;;;;;;;6.20;1.80;;;;;;;16.21;100.00;95831.91;5034961;28;20112;-72
2022/06/24 04:11:14;;;;;;;13.40;1.90;;;;;;;16.21;100.00;95845.38;5031803;28;20045;-72
2022/06/24 04:13:40;;;;;;;6.32;1.77;;;;;;;16.24;100.00;95836.69;5034163;28;20040;-73
2022/06/24 04:16:06;;;;;;;6.47;1.83;;;;;;;16.24;100.00;95842.06;5031739;28;20569;-72
2022/06/24 04:18:32;;;;;;;6.80;2.10;;;;;;;16.32;100.00;95825.19;5033314;28;20037;-73
2022/06/24 04:20:58;;;;;;;6.25;1.83;;;;;;;16.36;100.00;95830.81;5032493;28;20045;-73
2022/06/24 04:23:23;;;;;;;5.60;1.88;;;;;;;16.29;100.00;95833.91;5032278;28;20047;-72
2022/06/24 04:25:49;;;;;;;7.55;1.75;;;;;;;16.21;100.00;95826.50;5034297;28;20090;-72
2022/06/24 04:28:16;;;;;;;5.47;1.60;;;;;;;16.17;100.00;95836.28;5033205;28;20043;-72
2022/06/24 04:30:41;;;;;;;7.38;1.90;;;;;;;16.17;100.00;95828.19;5032314;28;20049;-72
2022/06/24 04:33:07;;;;;;;7.03;1.80;;;;;;;16.16;100.00;95840.06;5030744;28;20531;-72
2022/06/24 04:35:33;;;;;;;7.80;1.65;;;;;;;16.17;100.00;95837.06;5032215;28;20041;-72
2022/06/24 04:37:58;;;;;;;9.75;1.65;;;;;;;16.13;100.00;95841.47;5034868;28;20048;-72
2022/06/24 04:40:24;;;;;;;6.00;1.80;;;;;;;16.14;100.00;95843.06;5032187;28;20199;-73
2022/06/24 04:42:49;;;;;;;4.68;1.67;;;;;;;16.11;100.00;95848.28;5033612;28;20531;-72
2022/06/24 04:45:15;;;;;;;10.15;1.75;;;;;;;16.11;100.00;95848.28;5033148;28;20029;-72
2022/06/24 04:47:41;;;;;;;15.02;3.60;;;;;;;16.17;100.00;95853.25;5034413;28;20049;-72
2022/06/24 04:50:07;;;;;;;8.82;3.00;;;;;;;16.08;100.00;95841.56;5030964;28;20029;-72
2022/06/24 04:52:35;;;;;;;8.35;2.17;;;;;;;16.10;100.00;95849.34;5033047;28;20049;-72
2022/06/24 04:55:00;;;;;;;4.60;2.10;;;;;;;16.09;100.00;95855.84;5033139;28;20044;-72
2022/06/24 04:57:26;;;;;;;8.50;1.80;;;;;;;16.10;100.00;95858.25;5032423;28;20049;-73
2022/06/24 04:59:52;;;;;;;9.90;2.10;;;;;;;16.09;100.00;95869.34;5032408;28;20033;-72
2022/06/24 05:02:17;;;;;;;7.25;2.03;;;;;;;16.08;100.00;95867.75;5032684;28;20052;-72
2022/06/24 05:04:43;;;;;;;5.32;1.92;;;;;;;16.10;100.00;95866.34;5048269;28;20130;-73
2022/06/24 05:07:09;;;;;;;11.98;3.83;;;;;;;16.19;100.00;95865.69;5032829;28;20128;-72
2022/06/24 05:09:35;;;;;;;7.97;2.47;;;;;;;16.17;100.00;95861.34;5032523;28;20033;-73
2022/06/24 05:12:00;;;;;;;6.75;2.05;;;;;;;16.24;100.00;95866.38;5032691;28;20049;-73
2022/06/24 05:14:27;;;;;;;8.70;1.98;;;;;;;16.36;100.00;95855.91;5033434;28;20033;-72
2022/06/24 05:16:53;;;;;;;13.70;2.40;;;;;;;16.37;100.00;95852.09;5033653;28;20369;-72
2022/06/24 05:19:18;;;;;;;6.82;2.50;;;;;;;16.33;100.00;95845.69;5031827;28;20040;-73
2022/06/24 05:21:44;;;;;;;4.30;2.10;;;;;;;16.26;100.00;95845.28;5034841;28;20068;-73
2022/06/24 05:24:09;;;;;;;7.70;2.80;;;;;;;16.38;100.00;95847.50;5033219;28;20095;-73
2022/06/24 05:26:35;;;;;;;7.60;2.70;;;;;;;16.36;100.00;95850.50;5032350;28;20450;-73
2022/06/24 05:29:00;;;;;;;9.73;3.10;;;;;;;16.37;100.00;95857.50;5031313;28;20132;-72
2022/06/24 05:31:26;;;;;;;8.77;2.53;;;;;;;16.40;100.00;95856.88;5030870;28;20633;-74
2022/06/24 05:33:51;;;;;;;10.23;2.45;;;;;;;16.41;100.00;95853.06;5038217;28;20061;-73
2022/06/24 05:36:17;;;;;;;8.55;3.13;;;;;;;16.38;100.00;95855.59;5036669;28;20774;-74
2022/06/24 05:38:46;;;;;;;7.38;2.30;;;;;;;16.32;100.00;95849.47;5036926;28;20045;-73
2022/06/24 05:41:12;;;;;;;7.53;2.55;;;;;;;16.31;100.00;95869.47;5032783;28;20053;-72
2022/06/24 05:43:38;;;;;;;16.45;3.10;;;;;;;16.28;100.00;95869.28;5037633;28;20119;-73
2022/06/24 05:46:03;;;;;;;8.02;2.08;;;;;;;16.23;100.00;95874.78;5035533;28;20140;-75
2022/06/24 05:48:30;;;;;;;7.32;2.95;;;;;;;16.20;100.00;95867.28;5034136;28;20072;-74
2022/06/24 05:50:56;;;;;;;11.57;3.20;;;;;;;16.46;100.00;95868.38;5037285;28;20033;-73
2022/06/24 05:56:06;;;;;;;9.52;3.67;;;;;;;16.45;100.00;95864.09;5033817;28;20057;-73
2022/06/24 05:58:32;;;;;;;13.30;4.07;;;;;;;16.52;100.00;95853.69;5035209;28;20510;-73
2022/06/24 06:00:58;;;;;;;12.57;3.97;;;;;;;16.53;100.00;95852.59;5036823;28;20172;-73
2022/06/24 06:03:25;;;;;;;11.18;3.97;;;;;;;16.63;100.00;95846.19;5032719;28;20055;-73
2022/06/24 06:05:50;;;;;;;18.58;5.03;;;;;;;16.48;100.00;95844.59;5036685;28;20069;-72
2022/06/24 06:08:17;;;;;;;14.02;4.53;;;;;;;16.50;100.00;95846.97;5033684;28;20445;-73
2022/06/24 06:10:45;;;;;;;13.30;5.35;;;;;;;16.47;100.00;95848.38;5033778;28;20438;-72
2022/06/24 06:13:12;;;;;;;8.20;3.70;;;;;;;16.46;100.00;95840.59;5033007;28;20557;-73
2022/06/24 06:15:39;;;;;;;8.10;4.07;;;;;;;16.42;100.00;95843.91;5035673;28;20158;-73
2022/06/24 06:18:05;;;;;;;7.80;3.63;;;;;;;16.40;100.00;95856.09;5034087;28;20095;-73
2022/06/24 06:20:31;;;;;;;9.23;3.53;;;;;;;16.35;100.00;95846.19;5036167;28;20040;-72
2022/06/24 06:22:56;;;;;;;8.95;3.63;;;;;;;16.43;100.00;95850.91;5036422;28;20039;-73
2022/06/24 06:25:22;;;;;;;13.35;3.88;;;;;;;16.46;100.00;95848.69;5034059;28;20037;-72
2022/06/24 06:27:49;;;;;;;9.98;3.90;;;;;;;16.57;100.00;95850.06;5035663;28;20476;-73
2022/06/24 06:30:15;;;;;;;11.52;3.88;;;;;;;16.64;100.00;95848.56;5033905;28;20132;-73
2022/06/24 06:32:40;;;;;;;10.35;3.03;;;;;;;16.86;100.00;95838.97;5035707;28;20055;-73
2022/06/24 06:35:06;;;;;;;16.48;4.50;;;;;;;16.96;100.00;95834.16;5036771;28;20391;-73
2022/06/24 06:37:32;;;;;;;7.55;3.80;;;;;;;16.76;100.00;95825.69;5035986;28;20045;-72
2022/06/24 06:39:58;;;;;;;10.07;4.00;;;;;;;16.76;100.00;95833.81;5034307;28;20515;-74
2022/06/24 06:42:24;;;;;;;9.27;3.45;;;;;;;16.91;100.00;95823.47;5031329;28;20167;-73
2022/06/24 06:44:49;;;;;;;7.38;3.50;;;;;;;17.10;100.00;95814.41;5034642;28;20478;-73
2022/06/24 06:47:15;;;;;;;9.20;3.70;;;;;;;17.38;100.00;95805.09;5036962;28;20052;-75
2022/06/24 06:49:41;;;;;;;9.07;3.83;;;;;;;17.23;100.00;95792.72;5034508;28;20052;-73
2022/06/24 06:52:07;;;;;;;9.75;3.55;;;;;;;17.21;100.00;95805.75;5034421;28;20372;-73
2022/06/24 06:54:32;;;;;;;11.73;3.90;;;;;;;17.35;100.00;95794.88;5032617;28;20041;-73
2022/06/24 06:56:58;;;;;;;11.13;3.78;;;;;;;17.22;100.00;95796.53;5036706;28;20069;-74
2022/06/24 06:59:26;;;;;;;11.50;3.70;;;;;;;17.18;100.00;95806.34;5036886;28;20391;-73
2022/06/24 07:01:51;;;;;;;8.77;4.25;;;;;;;17.39;100.00;95798.56;5036440;28;20080;-72
2022/06/24 07:04:17;;;;;;;10.10;3.50;;;;;;;17.41;100.00;95792.84;5032121;28;20057;-73
2022/06/24 07:06:42;;;;;;;10.95;4.07;;;;;;;17.38;100.00;95788.06;5033926;28;20531;-73
2022/06/24 07:09:08;;;;;;;10.65;3.17;;;;;;;17.27;100.00;95790.19;5032907;28;20114;-74
2022/06/24 07:11:34;;;;;;;8.25;3.47;;;;;;;17.68;100.00;95784.59;5034683;28;20045;-72
2022/06/24 07:13:59;;;;;;;6.35;3.55;;;;;;;18.21;100.00;95772.94;5036705;28;20435;-74
2022/06/24 07:16:26;;;;;;;17.35;3.75;;;;;;;18.67;100.00;95789.81;5033928;28;20040;-74
2022/06/24 07:18:51;;;;;;;9.52;3.47;;;;;;;18.60;100.00;95790.25;5035589;28;20065;-73
2022/06/24 07:21:17;;;;;;;10.27;3.33;;;;;;;18.92;100.00;95780.94;5034810;28;20088;-73
2022/06/24 07:23:42;;;;;;;12.80;3.65;;;;;;;18.25;100.00;95786.63;5035223;28;20036;-73
2022/06/24 07:26:08;;;;;;;8.25;3.35;;;;;;;17.92;100.00;95787.00;5033610;28;20498;-73
2022/06/24 07:28:34;;;;;;;9.48;3.92;;;;;;;17.99;100.00;95792.75;5035863;28;20552;-73
2022/06/24 07:31:00;;;;;;;9.75;3.97;;;;;;;17.94;100.00;95792.09;5033419;28;20053;-73
2022/06/24 07:33:26;;;;;;;11.05;3.80;;;;;;;17.92;100.00;95792.41;5034456;28;20033;-74
2022/06/24 07:35:51;;;;;;;7.53;4.05;;;;;;;18.05;100.00;95791.50;5034159;28;20478;-74
2022/06/24 07:38:18;;;;;;;10.45;3.05;;;;;;;17.81;100.00;95796.47;5038086;28;20504;-73
2022/06/24 07:40:43;;;;;;;12.98;4.50;;;;;;;17.98;100.00;95802.00;5034000;28;20036;-75
2022/06/24 07:43:09;;;;;;;9.40;4.07;;;;;;;17.91;100.00;95796.22;5035096;28;20041;-72
2022/06/24 07:45:35;;;;;;;8.40;3.92;;;;;;;17.60;100.00;95798.88;5035155;28;20132;-72
2022/06/24 07:48:01;;;;;;;11.43;4.35;;;;;;;17.62;100.00;95803.97;5035870;28;20041;-72
2022/06/24 07:50:26;;;;;;;13.55;4.05;;;;;;;17.70;100.00;95801.34;5033180;28;21029;-72
2022/06/24 07:52:52;;;;;;;15.55;4.38;;;;;;;17.61;100.00;95800.47;5035480;28;20048;-71
2022/06/24 07:58:02;;;;;;;9.93;3.97;;;;;;;17.51;100.00;95798.03;5036568;28;20407;-72
2022/06/24 08:00:27;;;;;;;6.53;3.55;;;;;;;17.47;100.00;95803.25;5030246;28;20044;-72
2022/06/24 08:02:53;;;;;;;11.98;4.15;;;;;;;17.47;100.00;95800.53;5034951;28;20064;-72
2022/06/24 08:05:18;;;;;;;11.98;4.57;;;;;;;17.45;100.00;95797.34;5033170;28;20369;-71
2022/06/24 08:07:44;;;;;;;10.77;3.97;;;;;;;17.43;100.00;95791.47;5034067;28;20103;-73
2022/06/24 08:10:11;;;;;;;9.43;3.47;;;;;;;17.72;100.00;95796.41;5034477;28;20337;-72
2022/06/24 08:12:36;;;;;;;13.65;3.95;;;;;;;17.57;100.00;95801.38;5035637;28;20049;-73
2022/06/24 08:15:02;;;;;;;8.15;4.07;;;;;;;17.61;100.00;95800.47;5035156;28;20687;-71
2022/06/24 08:17:27;;;;;;;13.25;3.60;;;;;;;17.77;100.00;95798.22;5032767;28;20043;-73
2022/06/24 08:19:53;;;;;;;10.32;4.15;;;;;;;17.86;100.00;95788.22;5034135;28;20124;-72
2022/06/24 08:22:22;;;;;;;8.85;3.90;;;;;;;17.85;100.00;95792.03;5031977;28;20094;-72
2022/06/24 08:24:48;;;;;;;11.00;4.25;;;;;;;17.96;100.00;95797.97;5030867;28;20033;-72
2022/06/24 08:27:13;;;;;;;12.60;4.03;;;;;;;17.93;100.00;95794.00;5031948;28;20040;-72
2022/06/24 08:29:39;;;;;;;15.77;4.72;;;;;;;17.94;100.00;95797.50;5034219;28;20510;-73
2022/06/24 08:32:05;;;;;;;8.57;3.72;;;;;;;18.06;100.00;95797.72;5033448;28;20053;-74
2022/06/24 08:34:31;;;;;;;13.35;4.05;;;;;;;18.04;100.00;95789.09;5037198;28;20037;-74
2022/06/24 08:36:56;;;;;;;12.27;4.28;;;;;;;18.20;100.00;95792.97;5032511;28;20274;-73
2022/06/24 08:39:22;;;;;;;8.95;4.18;;;;;;;18.23;100.00;95791.59;5029979;28;20121;-74
2022/06/24 08:41:53;;;;;;;10.65;4.35;;;;;;;18.47;100.00;95802.00;5008657;28;20052;-73
2022/06/24 08:44:18;;;;;;;13.70;3.85;;;;;;;18.05;100.00;95794.22;5030732;28;20580;-72
2022/06/24 08:46:44;;;;;;;9.40;4.53;;;;;;;18.05;100.00;95796.94;5029941;28;20045;-73
2022/06/24 08:49:09;;;;;;;14.00;4.32;;;;;;;18.02;100.00;95796.75;5033582;28;20045;-73
2022/06/24 08:51:36;;;;;;;9.27;3.40;;;;;;;17.93;100.00;95794.00;5031700;28;20045;-73
2022/06/24 08:54:03;;;;;;;7.05;2.92;;;;;;;18.33;100.00;95791.28;5032360;28;20041;-73
2022/06/24 08:56:29;;;;;;;6.90;2.83;;;;;;;18.60;100.00;95792.97;5030345;28;20065;-73
2022/06/24 08:58:55;;;;;;;5.75;2.90;;;;;;;19.22;100.00;95781.88;5033657;28;20124;-73
2022/06/24 09:01:21;;;;;;;5.90;3.53;;;;;;;20.00;100.00;95773.66;5033283;28;20051;-74
2022/06/24 09:03:48;;;;;;;4.72;2.17;;;;;;;19.69;100.00;95766.53;5034638;28;20442;-73
2022/06/24 09:06:15;;;;;;;5.80;2.13;;;;;;;18.90;100.00;95783.94;5034932;28;20539;-73
2022/06/24 09:08:46;;;;;;;6.60;2.70;;;;;;;18.87;100.00;95783.78;5034488;28;20041;-74
2022/06/24 09:11:11;;;;;;;4.50;1.85;;;;;;;19.05;100.00;95785.38;5036368;28;20045;-73
2022/06/24 09:13:55;;;;;;;7.40;2.20;;;;;;;19.21;100.00;95783.00;5037620;28;20443;-73
2022/06/24 09:16:24;;;;;;;4.97;2.15;;;;;;;19.21;100.00;95775.66;5034545;28;20061;-73
2022/06/24 09:18:51;;;;;;;12.73;3.20;;;;;;;19.29;100.00;95784.09;5036757;28;20041;-73
2022/06/24 09:21:29;;;;;;;10.73;2.80;;;;;;;19.13;100.00;95776.44;5034692;28;20261;-73
2022/06/24 09:23:58;;;;;;;6.55;2.63;;;;;;;19.20;100.00;95776.78;5037375;28;20039;-73
2022/06/24 09:26:30;;;;;;;6.75;2.35;;;;;;;20.20;100.00;95766.69;5034280;28;20048;-74
2022/06/24 09:28:57;;;;;;;4.63;2.60;;;;;;;21.50;100.00;95765.84;5035812;28;20041;-74
2022/06/24 09:31:27;;;;;;;6.28;2.33;;;;;;;22.01;100.00;95753.59;5033963;28;20048;-73
2022/06/24 09:33:54;;;;;;;5.95;2.40;;;;;;;21.83;100.00;95747.56;5035599;28;20032;-74
2022/06/24 09:36:25;;;;;;;7.97;2.30;;;;;;;21.73;100.00;95752.66;5035061;28;20028;-74
2022/06/24 09:38:59;;;;;;;;;;;;;;;21.71;100.00;95750.25;5036278;28;20033;-74
2022/06/24 09:41:25;;;;;;;4.45;1.90;;;;;;;21.71;100.00;95758.41;5007467;28;19917;-73
2022/06/24 09:43:52;;;;;;;8.00;2.13;;;;;;;21.18;100.00;95759.22;5036066;28;20132;-73
2022/06/24 09:46:23;;;;;;;7.18;1.73;;;;;;;21.60;100.00;95749.88;5034306;28;20532;-73
2022/06/24 09:48:57;;;;;;;4.05;2.10;;;;;;;21.65;100.00;95754.34;5035761;28;20045;-74
2022/06/24 09:51:22;;;;;;;4.85;3.10;;;;;;;22.57;100.00;95758.53;5034707;28;20447;-74
2022/06/24 09:53:51;;;;;;;4.05;2.35;;;;;;;22.57;100.00;95755.81;5035716;28;20037;-75
2022/06/24 09:56:17;;;;;;;6.15;2.17;;;;;;;22.26;100.00;95759.91;5032588;28;20037;-75
2022/06/24 09:58:43;;;;;;;4.78;2.15;;;;;;;21.66;100.00;95750.47;5037383;28;20033;-74
2022/06/24 10:01:09;;;;;;;7.80;2.63;;;;;;;21.08;100.00;95755.75;5035524;28;20048;-74
2022/06/24 10:03:35;;;;;;;6.25;2.72;;;;;;;20.91;100.00;95757.81;5038926;28;20025;-75
2022/06/24 10:06:09;;;;;;;4.45;2.45;;;;;;;20.79;100.00;95764.78;5037155;28;20075;-74
2022/06/24 10:08:35;;;;;;;4.65;2.33;;;;;;;20.69;100.00;95770.59;5038141;28;20072;-73
2022/06/24 10:11:06;;;;;;;8.15;3.00;;;;;;;20.34;100.00;95785.47;5038664;28;20045;-72
2022/06/24 10:13:33;;;;;;;7.22;2.67;;;;;;;19.99;100.00;95786.41;5038088;28;20102;-73
2022/06/24 10:16:07;;;;;;;6.18;1.98;;;;;;;20.04;100.00;95801.72;5036145;28;20073;-73
2022/06/24 10:18:43;;;;;;;4.43;1.70;;;;;;;20.19;100.00;95790.34;5037101;28;20064;-73
2022/06/24 10:21:11;;;;;;;4.18;1.70;;;;;;;20.30;100.00;95783.41;5036802;28;20051;-74
2022/06/24 10:23:46;;;;;;;4.68;1.40;;;;;;;20.20;100.00;95791.91;5035586;28;20041;-73
2022/06/24 10:26:17;;;;;;;5.07;1.58;;;;;;;20.04;100.00;95794.38;5038647;28;20083;-74
2022/06/24 10:29:03;;;;;;;3.15;1.30;;;;;;;19.99;100.00;95805.41;5036390;28;20044;-73
2022/06/24 10:31:44;;;;;;;2.40;1.35;;;;;;;19.96;100.00;95805.28;4685671;28;10000099;-74
2022/06/24 10:34:35;;;;;;;4.32;1.65;;;;;;;19.84;100.00;95807.84;5036925;28;20033;-75
2022/06/24 10:37:18;;;;;;;3.77;1.47;;;;;;;19.84;100.00;95815.97;5024804;28;20609;-73
2022/06/24 10:39:51;;;;;;;3.88;1.70;;;;;;;20.03;100.00;95808.28;5031806;28;20033;-73
2022/06/24 10:42:24;;;;;;;3.17;1.65;;;;;;;20.47;100.00;95801.59;5035427;28;20033;-73
2022/06/24 10:45:04;;;;;;;5.25;1.85;;;;;;;20.67;100.00;95810.13;5036571;28;20045;-73
2022/06/24 10:47:39;;;;;;;4.68;1.88;;;;;;;20.86;100.00;95802.34;5014609;28;20049;-74
2022/06/24 10:50:09;;;;;;;4.30;1.90;;;;;;;21.18;100.00;95810.91;5036887;28;20045;-75
2022/06/24 10:52:51;;;;;;;3.88;1.80;;;;;;;21.20;100.00;95825.78;5038056;28;20539;-74
2022/06/24 10:55:16;;;;;;;5.18;2.20;;;;;;;21.11;100.00;95823.13;5034623;28;20392;-74
2022/06/24 10:57:43;;;;;;;6.00;3.20;;;;;;;20.87;100.00;95817.53;5039013;28;20040;-73
2022/06/24 11:00:14;;;;;;;7.45;3.40;;;;;;;20.74;100.00;95815.84;5036744;28;20431;-73
2022/06/24 11:02:40;;;;;;;6.65;3.42;;;;;;;20.68;100.00;95820.66;5034434;28;20356;-74
2022/06/24 11:05:11;;;;;;;6.50;3.50;;;;;;;20.67;100.00;95824.50;5032111;28;20124;-72
2022/06/24 11:07:46;;;;;;;5.95;3.30;;;;;;;20.95;100.00;95834.91;5044022;28;20056;-74
2022/06/24 11:10:26;;;;;;;4.93;2.80;;;;;;;20.70;100.00;95834.72;5049659;28;20079;-74
2022/06/24 11:12:54;;;;;;;4.82;2.40;;;;;;;20.81;100.00;95835.94;5047250;28;20324;-74
2022/06/24 11:15:43;;;;;;;4.93;3.10;;;;;;;21.09;100.00;95827.31;5037402;28;20238;-75
2022/06/24 11:18:11;;;;;;;4.25;2.97;;;;;;;22.15;100.00;95832.31;5033523;28;20120;-75
2022/06/24 11:20:39;;;;;;;5.22;3.47;;;;;;;22.84;100.00;95819.75;5035942;28;20056;-74
2022/06/24 11:23:10;;;;;;;5.15;3.70;;;;;;;23.36;100.00;95811.63;5035720;28;20045;-74
2022/06/24 11:25:40;;;;;;;6.18;3.95;;;;;;;24.17;100.00;95821.28;5037499;28;20033;-75
2022/06/24 11:28:17;;;;;;;7.80;3.88;;;;;;;25.12;100.00;95809.53;5020723;28;20052;-75
2022/06/24 11:30:43;;;;;;;6.28;3.50;;;;;;;26.08;100.00;95817.81;5036759;28;20045;-72
2022/06/24 11:33:08;;;;;;;5.22;3.10;;;;;;;27.56;100.00;95810.72;5033115;28;20094;-74
2022/06/24 11:35:34;;;;;;;7.32;3.47;;;;;;;28.95;94.38;95804.69;5034930;28;20302;-73